Terminal Aerodrome Forecast
Issued by NWS Charleston, WV

Current Version | Previous Version | Graphics & Text | Print | Product List | Glossary On
Versions: 1 2 3 4 5 6 7 8 9 10 11 12 13 14 15 16 17 18 19 20 21 22 23 24 25
743
FTUS41 KRLX 252329
TAFCRW
TAF
KCRW 252329Z 2600/2624 04004KT P6SM SCT080 OVC200
     FM261500 17007KT 5SM -SHRA OVC045
     FM261700 16009G18KT P6SM OVC040
     FM262000 17013G27KT P6SM OVC035
     FM262200 17010G18KT 5SM -SHRA OVC040
     FM262300 17008KT 6SM -SHRA OVC040=

USA.gov is the U.S. government's official web portal to all federal, state and local government web resources and services.